sensor_id;sensor_type;location;lat;lon;timestamp;temperature;humidity
6174;DHT22;3120;48.796;9.796;2023-06-19T00:02:15;23.00;51.70
6174;DHT22;3120;48.796;9.796;2023-06-19T00:04:40;23.00;51.90
6174;DHT22;3120;48.796;9.796;2023-06-19T00:07:06;23.00;52.10
6174;DHT22;3120;48.796;9.796;2023-06-19T00:09:32;23.00;52.30
6174;DHT22;3120;48.796;9.796;2023-06-19T00:12:00;22.90;53.00
6174;DHT22;3120;48.796;9.796;2023-06-19T00:14:27;22.80;53.30
6174;DHT22;3120;48.796;9.796;2023-06-19T00:16:52;22.80;53.20
6174;DHT22;3120;48.796;9.796;2023-06-19T00:19:18;22.70;53.40
6174;DHT22;3120;48.796;9.796;2023-06-19T00:21:44;22.80;53.60
6174;DHT22;3120;48.796;9.796;2023-06-19T00:24:10;22.70;53.90
6174;DHT22;3120;48.796;9.796;2023-06-19T00:26:36;22.70;54.00
6174;DHT22;3120;48.796;9.796;2023-06-19T00:29:01;22.60;54.20
6174;DHT22;3120;48.796;9.796;2023-06-19T00:31:27;22.60;53.90
6174;DHT22;3120;48.796;9.796;2023-06-19T00:33:53;22.60;53.90
6174;DHT22;3120;48.796;9.796;2023-06-19T00:36:19;22.50;55.00
6174;DHT22;3120;48.796;9.796;2023-06-19T00:38:51;22.40;54.70
6174;DHT22;3120;48.796;9.796;2023-06-19T00:41:17;22.40;54.40
6174;DHT22;3120;48.796;9.796;2023-06-19T00:43:43;22.30;54.90
6174;DHT22;3120;48.796;9.796;2023-06-19T00:46:10;22.30;55.60
6174;DHT22;3120;48.796;9.796;2023-06-19T00:48:36;22.20;55.60
6174;DHT22;3120;48.796;9.796;2023-06-19T00:51:02;22.20;56.40
6174;DHT22;3120;48.796;9.796;2023-06-19T00:53:28;22.10;56.40
6174;DHT22;3120;48.796;9.796;2023-06-19T00:55:56;22.10;56.20
6174;DHT22;3120;48.796;9.796;2023-06-19T00:58:23;22.10;57.60
6174;DHT22;3120;48.796;9.796;2023-06-19T01:00:48;22.10;57.20
6174;DHT22;3120;48.796;9.796;2023-06-19T01:03:16;22.10;57.10
6174;DHT22;3120;48.796;9.796;2023-06-19T01:05:42;22.10;56.60
6174;DHT22;3120;48.796;9.796;2023-06-19T01:11:22;22.10;57.10
6174;DHT22;3120;48.796;9.796;2023-06-19T01:13:52;22.00;58.10
6174;DHT22;3120;48.796;9.796;2023-06-19T01:16:20;22.00;58.90
6174;DHT22;3120;48.796;9.796;2023-06-19T01:18:46;21.90;58.40
6174;DHT22;3120;48.796;9.796;2023-06-19T01:21:15;21.90;59.40
6174;DHT22;3120;48.796;9.796;2023-06-19T01:23:42;21.80;59.60
6174;DHT22;3120;48.796;9.796;2023-06-19T01:26:09;21.80;59.00
6174;DHT22;3120;48.796;9.796;2023-06-19T01:28:35;21.80;59.40
6174;DHT22;3120;48.796;9.796;2023-06-19T01:31:15;21.80;59.70
6174;DHT22;3120;48.796;9.796;2023-06-19T01:33:44;21.80;59.10
6174;DHT22;3120;48.796;9.796;2023-06-19T01:36:11;21.80;58.90
6174;DHT22;3120;48.796;9.796;2023-06-19T01:38:37;21.80;59.00
6174;DHT22;3120;48.796;9.796;2023-06-19T01:41:04;21.70;59.30
6174;DHT22;3120;48.796;9.796;2023-06-19T01:43:32;21.70;58.90
6174;DHT22;3120;48.796;9.796;2023-06-19T01:45:58;21.60;58.80
6174;DHT22;3120;48.796;9.796;2023-06-19T01:48:24;21.60;58.50
6174;DHT22;3120;48.796;9.796;2023-06-19T01:50:51;21.60;58.40
6174;DHT22;3120;48.796;9.796;2023-06-19T01:53:17;21.60;59.30
6174;DHT22;3120;48.796;9.796;2023-06-19T01:55:43;21.60;58.20
6174;DHT22;3120;48.796;9.796;2023-06-19T01:58:19;21.60;58.40
6174;DHT22;3120;48.796;9.796;2023-06-19T02:00:44;21.50;58.50
6174;DHT22;3120;48.796;9.796;2023-06-19T02:03:10;21.50;59.40
6174;DHT22;3120;48.796;9.796;2023-06-19T02:05:35;21.60;59.90
6174;DHT22;3120;48.796;9.796;2023-06-19T02:08:05;21.60;59.80
6174;DHT22;3120;48.796;9.796;2023-06-19T02:10:30;21.50;60.00
6174;DHT22;3120;48.796;9.796;2023-06-19T02:12:56;21.40;60.00
6174;DHT22;3120;48.796;9.796;2023-06-19T02:15:22;21.50;59.70
6174;DHT22;3120;48.796;9.796;2023-06-19T02:17:47;21.40;59.70
6174;DHT22;3120;48.796;9.796;2023-06-19T02:20:14;21.40;59.00
6174;DHT22;3120;48.796;9.796;2023-06-19T02:22:41;21.30;58.90
6174;DHT22;3120;48.796;9.796;2023-06-19T02:25:07;21.30;58.60
6174;DHT22;3120;48.796;9.796;2023-06-19T02:27:32;21.30;58.50
6174;DHT22;3120;48.796;9.796;2023-06-19T02:29:58;21.20;60.00
6174;DHT22;3120;48.796;9.796;2023-06-19T02:32:24;21.10;60.00
6174;DHT22;3120;48.796;9.796;2023-06-19T02:34:50;21.10;58.70
6174;DHT22;3120;48.796;9.796;2023-06-19T02:37:15;21.20;57.90
6174;DHT22;3120;48.796;9.796;2023-06-19T02:39:41;21.20;57.90
6174;DHT22;3120;48.796;9.796;2023-06-19T02:42:07;21.20;56.80
6174;DHT22;3120;48.796;9.796;2023-06-19T02:44:32;21.30;58.90
6174;DHT22;3120;48.796;9.796;2023-06-19T02:46:58;21.30;59.00
6174;DHT22;3120;48.796;9.796;2023-06-19T02:49:23;21.20;59.20
6174;DHT22;3120;48.796;9.796;2023-06-19T02:51:49;21.10;59.60
6174;DHT22;3120;48.796;9.796;2023-06-19T02:54:15;21.10;59.90
6174;DHT22;3120;48.796;9.796;2023-06-19T02:56:53;21.00;60.00
6174;DHT22;3120;48.796;9.796;2023-06-19T02:59:18;20.90;59.00
6174;DHT22;3120;48.796;9.796;2023-06-19T03:01:44;20.90;59.30
6174;DHT22;3120;48.796;9.796;2023-06-19T03:04:10;21.00;60.20
6174;DHT22;3120;48.796;9.796;2023-06-19T03:06:35;21.00;60.70
6174;DHT22;3120;48.796;9.796;2023-06-19T03:09:05;20.90;59.10
6174;DHT22;3120;48.796;9.796;2023-06-19T03:11:38;21.10;58.90
6174;DHT22;3120;48.796;9.796;2023-06-19T03:14:03;21.30;59.10
6174;DHT22;3120;48.796;9.796;2023-06-19T03:16:32;21.20;59.30
6174;DHT22;3120;48.796;9.796;2023-06-19T03:18:58;21.10;59.90
6174;DHT22;3120;48.796;9.796;2023-06-19T03:21:24;21.10;60.00
6174;DHT22;3120;48.796;9.796;2023-06-19T03:23:49;21.10;60.70
6174;DHT22;3120;48.796;9.796;2023-06-19T03:26:15;20.90;60.80
6174;DHT22;3120;48.796;9.796;2023-06-19T03:28:41;21.10;61.30
6174;DHT22;3120;48.796;9.796;2023-06-19T03:31:06;21.00;61.90
6174;DHT22;3120;48.796;9.796;2023-06-19T03:33:32;20.90;62.20
6174;DHT22;3120;48.796;9.796;2023-06-19T03:35:57;20.80;64.20
6174;DHT22;3120;48.796;9.796;2023-06-19T03:38:23;20.80;62.80
6174;DHT22;3120;48.796;9.796;2023-06-19T03:43:29;20.70;62.70
6174;DHT22;3120;48.796;9.796;2023-06-19T03:45:54;20.80;62.00
6174;DHT22;3120;48.796;9.796;2023-06-19T03:48:20;20.80;62.20
6174;DHT22;3120;48.796;9.796;2023-06-19T03:50:46;20.90;61.80
6174;DHT22;3120;48.796;9.796;2023-06-19T03:53:11;20.90;62.70
6174;DHT22;3120;48.796;9.796;2023-06-19T03:55:37;20.80;62.30
6174;DHT22;3120;48.796;9.796;2023-06-19T03:58:02;21.00;63.30
6174;DHT22;3120;48.796;9.796;2023-06-19T04:00:28;20.90;63.30
6174;DHT22;3120;48.796;9.796;2023-06-19T04:02:54;20.90;62.50
6174;DHT22;3120;48.796;9.796;2023-06-19T04:05:19;21.00;61.80
6174;DHT22;3120;48.796;9.796;2023-06-19T04:07:45;21.00;62.10
6174;DHT22;3120;48.796;9.796;2023-06-19T04:10:11;21.20;61.20
6174;DHT22;3120;48.796;9.796;2023-06-19T04:12:37;21.30;60.80
6174;DHT22;3120;48.796;9.796;2023-06-19T04:15:03;21.40;60.40
6174;DHT22;3120;48.796;9.796;2023-06-19T04:17:29;21.50;61.10
6174;DHT22;3120;48.796;9.796;2023-06-19T04:19:54;21.50;60.50
6174;DHT22;3120;48.796;9.796;2023-06-19T04:22:20;21.70;60.00
6174;DHT22;3120;48.796;9.796;2023-06-19T04:24:46;21.80;60.00
6174;DHT22;3120;48.796;9.796;2023-06-19T04:27:11;21.90;59.90
6174;DHT22;3120;48.796;9.796;2023-06-19T04:29:37;21.90;59.80
6174;DHT22;3120;48.796;9.796;2023-06-19T04:32:03;21.90;59.70
6174;DHT22;3120;48.796;9.796;2023-06-19T04:34:36;22.00;59.70
6174;DHT22;3120;48.796;9.796;2023-06-19T04:37:01;22.10;59.50
6174;DHT22;3120;48.796;9.796;2023-06-19T04:39:27;22.10;59.50
6174;DHT22;3120;48.796;9.796;2023-06-19T04:41:52;22.10;60.20
6174;DHT22;3120;48.796;9.796;2023-06-19T04:44:18;22.10;59.40
6174;DHT22;3120;48.796;9.796;2023-06-19T04:46:44;22.20;59.40
6174;DHT22;3120;48.796;9.796;2023-06-19T04:49:09;22.30;59.40
6174;DHT22;3120;48.796;9.796;2023-06-19T04:51:35;22.40;59.70
6174;DHT22;3120;48.796;9.796;2023-06-19T04:54:01;22.40;59.30
6174;DHT22;3120;48.796;9.796;2023-06-19T04:56:27;22.50;59.00
6174;DHT22;3120;48.796;9.796;2023-06-19T04:58:54;22.40;59.00
6174;DHT22;3120;48.796;9.796;2023-06-19T05:01:22;22.40;59.70
6174;DHT22;3120;48.796;9.796;2023-06-19T05:03:53;22.40;59.40
6174;DHT22;3120;48.796;9.796;2023-06-19T05:06:20;22.50;59.30
6174;DHT22;3120;48.796;9.796;2023-06-19T05:08:45;22.50;59.40
6174;DHT22;3120;48.796;9.796;2023-06-19T05:11:11;22.60;59.00
6174;DHT22;3120;48.796;9.796;2023-06-19T05:13:37;22.70;58.80
6174;DHT22;3120;48.796;9.796;2023-06-19T05:16:02;22.60;59.90
6174;DHT22;3120;48.796;9.796;2023-06-19T05:18:28;22.70;58.70
6174;DHT22;3120;48.796;9.796;2023-06-19T05:20:53;22.70;59.80
6174;DHT22;3120;48.796;9.796;2023-06-19T05:23:19;22.70;59.30
6174;DHT22;3120;48.796;9.796;2023-06-19T05:25:44;23.00;58.70
6174;DHT22;3120;48.796;9.796;2023-06-19T05:28:11;23.00;58.50
6174;DHT22;3120;48.796;9.796;2023-06-19T05:30:36;23.10;58.20
6174;DHT22;3120;48.796;9.796;2023-06-19T05:33:04;23.10;57.90
6174;DHT22;3120;48.796;9.796;2023-06-19T05:35:36;23.10;57.60
6174;DHT22;3120;48.796;9.796;2023-06-19T05:38:02;23.20;57.70
6174;DHT22;3120;48.796;9.796;2023-06-19T05:40:28;23.10;57.70
6174;DHT22;3120;48.796;9.796;2023-06-19T05:42:53;23.10;58.20
6174;DHT22;3120;48.796;9.796;2023-06-19T05:45:21;23.20;58.10
6174;DHT22;3120;48.796;9.796;2023-06-19T05:47:47;23.10;58.10
6174;DHT22;3120;48.796;9.796;2023-06-19T05:50:13;23.10;58.30
6174;DHT22;3120;48.796;9.796;2023-06-19T05:52:38;23.10;58.20
6174;DHT22;3120;48.796;9.796;2023-06-19T05:55:08;23.10;58.00
6174;DHT22;3120;48.796;9.796;2023-06-19T05:57:34;23.20;58.10
6174;DHT22;3120;48.796;9.796;2023-06-19T06:00:01;23.20;58.00
6174;DHT22;3120;48.796;9.796;2023-06-19T06:02:26;23.20;58.20
6174;DHT22;3120;48.796;9.796;2023-06-19T06:04:53;23.30;58.00
6174;DHT22;3120;48.796;9.796;2023-06-19T06:07:21;23.30;58.40
6174;DHT22;3120;48.796;9.796;2023-06-19T06:09:48;23.40;58.00
6174;DHT22;3120;48.796;9.796;2023-06-19T06:12:13;23.60;57.60
6174;DHT22;3120;48.796;9.796;2023-06-19T06:14:40;23.50;57.30
6174;DHT22;3120;48.796;9.796;2023-06-19T06:17:07;23.50;57.60
6174;DHT22;3120;48.796;9.796;2023-06-19T06:19:33;23.70;57.50
6174;DHT22;3120;48.796;9.796;2023-06-19T06:22:07;23.80;57.40
6174;DHT22;3120;48.796;9.796;2023-06-19T06:24:39;24.00;56.20
6174;DHT22;3120;48.796;9.796;2023-06-19T06:27:26;23.80;56.50
6174;DHT22;3120;48.796;9.796;2023-06-19T06:29:55;23.90;56.50
6174;DHT22;3120;48.796;9.796;2023-06-19T06:32:31;23.90;56.40
6174;DHT22;3120;48.796;9.796;2023-06-19T06:35:09;23.80;56.30
6174;DHT22;3120;48.796;9.796;2023-06-19T06:37:47;23.90;56.30
6174;DHT22;3120;48.796;9.796;2023-06-19T06:40:47;24.00;56.20
6174;DHT22;3120;48.796;9.796;2023-06-19T06:43:25;24.20;56.10
6174;DHT22;3120;48.796;9.796;2023-06-19T06:49:08;24.80;55.30
6174;DHT22;3120;48.796;9.796;2023-06-19T06:52:07;25.00;54.60
6174;DHT22;3120;48.796;9.796;2023-06-19T06:55:29;25.40;53.80
6174;DHT22;3120;48.796;9.796;2023-06-19T06:58:01;25.30;53.70
6174;DHT22;3120;48.796;9.796;2023-06-19T07:00:26;25.50;52.80
6174;DHT22;3120;48.796;9.796;2023-06-19T07:02:53;25.50;52.90
6174;DHT22;3120;48.796;9.796;2023-06-19T07:05:36;25.50;52.40
6174;DHT22;3120;48.796;9.796;2023-06-19T07:08:25;25.40;53.40
6174;DHT22;3120;48.796;9.796;2023-06-19T07:11:35;25.50;52.40
6174;DHT22;3120;48.796;9.796;2023-06-19T07:14:32;25.30;52.90
6174;DHT22;3120;48.796;9.796;2023-06-19T07:22:41;24.60;54.20
6174;DHT22;3120;48.796;9.796;2023-06-19T07:25:07;24.70;54.40
6174;DHT22;3120;48.796;9.796;2023-06-19T07:27:35;25.00;54.00
6174;DHT22;3120;48.796;9.796;2023-06-19T07:30:01;25.10;53.30
6174;DHT22;3120;48.796;9.796;2023-06-19T07:32:27;24.90;53.90
6174;DHT22;3120;48.796;9.796;2023-06-19T07:34:53;24.80;54.30
6174;DHT22;3120;48.796;9.796;2023-06-19T07:37:19;24.90;54.20
6174;DHT22;3120;48.796;9.796;2023-06-19T07:39:50;25.10;53.90
6174;DHT22;3120;48.796;9.796;2023-06-19T07:50:02;25.80;52.10
6174;DHT22;3120;48.796;9.796;2023-06-19T07:52:27;25.70;52.20
6174;DHT22;3120;48.796;9.796;2023-06-19T07:55:11;25.90;52.50
6174;DHT22;3120;48.796;9.796;2023-06-19T07:57:37;26.40;50.90
6174;DHT22;3120;48.796;9.796;2023-06-19T08:00:08;26.40;50.80
6174;DHT22;3120;48.796;9.796;2023-06-19T08:02:41;26.20;51.00
6174;DHT22;3120;48.796;9.796;2023-06-19T08:05:08;25.80;52.10
6174;DHT22;3120;48.796;9.796;2023-06-19T08:07:37;25.90;52.00
6174;DHT22;3120;48.796;9.796;2023-06-19T08:10:03;25.90;51.90
6174;DHT22;3120;48.796;9.796;2023-06-19T08:12:30;26.10;51.60
6174;DHT22;3120;48.796;9.796;2023-06-19T08:14:55;26.30;51.40
6174;DHT22;3120;48.796;9.796;2023-06-19T08:17:21;26.50;51.70
6174;DHT22;3120;48.796;9.796;2023-06-19T08:19:47;26.50;51.40
6174;DHT22;3120;48.796;9.796;2023-06-19T08:22:13;26.60;50.70
6174;DHT22;3120;48.796;9.796;2023-06-19T08:24:39;26.70;50.80
6174;DHT22;3120;48.796;9.796;2023-06-19T08:27:09;26.90;50.70
6174;DHT22;3120;48.796;9.796;2023-06-19T08:29:34;26.90;50.40
6174;DHT22;3120;48.796;9.796;2023-06-19T08:32:00;26.80;50.50
6174;DHT22;3120;48.796;9.796;2023-06-19T08:34:27;26.60;51.20
6174;DHT22;3120;48.796;9.796;2023-06-19T08:36:53;26.80;50.60
6174;DHT22;3120;48.796;9.796;2023-06-19T08:39:20;27.00;50.50
6174;DHT22;3120;48.796;9.796;2023-06-19T08:42:26;27.30;49.50
6174;DHT22;3120;48.796;9.796;2023-06-19T08:44:53;27.70;48.70
6174;DHT22;3120;48.796;9.796;2023-06-19T08:47:18;27.60;48.60
6174;DHT22;3120;48.796;9.796;2023-06-19T08:49:44;27.70;48.60
6174;DHT22;3120;48.796;9.796;2023-06-19T08:52:10;28.00;48.40
6174;DHT22;3120;48.796;9.796;2023-06-19T08:54:39;28.10;47.20
6174;DHT22;3120;48.796;9.796;2023-06-19T08:57:12;28.30;46.60
6174;DHT22;3120;48.796;9.796;2023-06-19T09:00:00;28.20;46.70
6174;DHT22;3120;48.796;9.796;2023-06-19T09:02:39;28.00;46.80
6174;DHT22;3120;48.796;9.796;2023-06-19T09:05:16;28.10;47.10
6174;DHT22;3120;48.796;9.796;2023-06-19T09:07:43;28.10;45.80
6174;DHT22;3120;48.796;9.796;2023-06-19T09:10:17;28.10;46.70
6174;DHT22;3120;48.796;9.796;2023-06-19T09:12:44;28.20;46.80
6174;DHT22;3120;48.796;9.796;2023-06-19T09:15:22;27.70;46.70
6174;DHT22;3120;48.796;9.796;2023-06-19T09:18:06;27.40;47.60
6174;DHT22;3120;48.796;9.796;2023-06-19T09:20:34;27.40;48.40
6174;DHT22;3120;48.796;9.796;2023-06-19T09:23:00;27.30;48.50
6174;DHT22;3120;48.796;9.796;2023-06-19T09:25:26;27.40;48.10
6174;DHT22;3120;48.796;9.796;2023-06-19T09:27:54;27.50;48.10
6174;DHT22;3120;48.796;9.796;2023-06-19T09:30:20;27.50;47.00
6174;DHT22;3120;48.796;9.796;2023-06-19T09:32:46;27.70;47.20
6174;DHT22;3120;48.796;9.796;2023-06-19T09:35:11;27.40;48.10
6174;DHT22;3120;48.796;9.796;2023-06-19T09:37:40;27.50;47.30
6174;DHT22;3120;48.796;9.796;2023-06-19T09:40:06;27.40;47.80
6174;DHT22;3120;48.796;9.796;2023-06-19T09:42:37;27.30;48.70
6174;DHT22;3120;48.796;9.796;2023-06-19T09:45:08;27.70;47.50
6174;DHT22;3120;48.796;9.796;2023-06-19T09:47:45;28.10;47.60
6174;DHT22;3120;48.796;9.796;2023-06-19T09:50:14;28.30;46.70
6174;DHT22;3120;48.796;9.796;2023-06-19T09:52:42;28.70;44.50
6174;DHT22;3120;48.796;9.796;2023-06-19T09:55:09;28.80;44.10
6174;DHT22;3120;48.796;9.796;2023-06-19T09:57:39;29.40;43.10
6174;DHT22;3120;48.796;9.796;2023-06-19T10:00:10;29.40;43.20
6174;DHT22;3120;48.796;9.796;2023-06-19T10:02:43;29.20;42.80
6174;DHT22;3120;48.796;9.796;2023-06-19T10:05:09;29.20;42.70
6174;DHT22;3120;48.796;9.796;2023-06-19T10:08:01;29.40;42.40
6174;DHT22;3120;48.796;9.796;2023-06-19T10:10:30;29.40;41.90
6174;DHT22;3120;48.796;9.796;2023-06-19T10:14:15;29.50;41.60
6174;DHT22;3120;48.796;9.796;2023-06-19T10:16:49;29.40;41.40
6174;DHT22;3120;48.796;9.796;2023-06-19T10:36:35;30.70;38.60
6174;DHT22;3120;48.796;9.796;2023-06-19T10:46:54;32.00;36.40
6174;DHT22;3120;48.796;9.796;2023-06-19T10:49:51;32.50;35.80
6174;DHT22;3120;48.796;9.796;2023-06-19T10:57:03;31.40;36.70
6174;DHT22;3120;48.796;9.796;2023-06-19T11:07:04;32.20;35.80
6174;DHT22;3120;48.796;9.796;2023-06-19T11:13:42;31.60;36.10
6174;DHT22;3120;48.796;9.796;2023-06-19T11:17:04;31.30;37.80
6174;DHT22;3120;48.796;9.796;2023-06-19T11:47:35;33.30;32.70
6174;DHT22;3120;48.796;9.796;2023-06-19T11:50:37;33.20;33.40
6174;DHT22;3120;48.796;9.796;2023-06-19T11:53:41;32.80;33.70
6174;DHT22;3120;48.796;9.796;2023-06-19T11:59:06;31.50;37.80
6174;DHT22;3120;48.796;9.796;2023-06-19T13:01:13;38.80;25.10
6174;DHT22;3120;48.796;9.796;2023-06-19T13:03:39;38.90;25.00
6174;DHT22;3120;48.796;9.796;2023-06-19T13:06:05;39.10;24.70
6174;DHT22;3120;48.796;9.796;2023-06-19T13:08:31;39.20;24.50
6174;DHT22;3120;48.796;9.796;2023-06-19T13:10:56;38.90;26.20
6174;DHT22;3120;48.796;9.796;2023-06-19T13:13:22;38.70;25.80
6174;DHT22;3120;48.796;9.796;2023-06-19T13:15:48;38.60;25.30
6174;DHT22;3120;48.796;9.796;2023-06-19T13:18:15;38.20;25.70
6174;DHT22;3120;48.796;9.796;2023-06-19T13:20:40;38.50;25.20
6174;DHT22;3120;48.796;9.796;2023-06-19T13:23:06;37.90;25.50
6174;DHT22;3120;48.796;9.796;2023-06-19T13:25:31;37.40;27.50
6174;DHT22;3120;48.796;9.796;2023-06-19T13:27:58;37.80;25.70
6174;DHT22;3120;48.796;9.796;2023-06-19T13:30:24;37.90;25.90
6174;DHT22;3120;48.796;9.796;2023-06-19T13:32:51;37.60;26.10
6174;DHT22;3120;48.796;9.796;2023-06-19T13:35:17;37.20;26.40
6174;DHT22;3120;48.796;9.796;2023-06-19T13:37:42;36.70;27.10
6174;DHT22;3120;48.796;9.796;2023-06-19T13:40:08;36.90;27.00
6174;DHT22;3120;48.796;9.796;2023-06-19T13:42:34;37.00;26.10
6174;DHT22;3120;48.796;9.796;2023-06-19T13:45:04;37.70;27.00
6174;DHT22;3120;48.796;9.796;2023-06-19T13:47:42;38.40;25.10
6174;DHT22;3120;48.796;9.796;2023-06-19T13:50:08;39.00;24.20
6174;DHT22;3120;48.796;9.796;2023-06-19T13:52:34;39.50;23.80
6174;DHT22;3120;48.796;9.796;2023-06-19T13:55:00;39.80;25.40
6174;DHT22;3120;48.796;9.796;2023-06-19T13:57:27;39.50;24.80
6174;DHT22;3120;48.796;9.796;2023-06-19T13:59:53;39.40;24.10
6174;DHT22;3120;48.796;9.796;2023-06-19T14:02:19;40.40;23.90
6174;DHT22;3120;48.796;9.796;2023-06-19T14:04:44;40.00;24.40
6174;DHT22;3120;48.796;9.796;2023-06-19T14:07:10;39.90;24.60
6174;DHT22;3120;48.796;9.796;2023-06-19T14:09:35;39.50;26.00
6174;DHT22;3120;48.796;9.796;2023-06-19T14:12:01;40.40;23.30
6174;DHT22;3120;48.796;9.796;2023-06-19T14:14:27;41.30;23.50
6174;DHT22;3120;48.796;9.796;2023-06-19T14:16:52;41.50;22.50
6174;DHT22;3120;48.796;9.796;2023-06-19T14:19:18;41.90;21.70
6174;DHT22;3120;48.796;9.796;2023-06-19T14:21:43;41.80;21.50
6174;DHT22;3120;48.796;9.796;2023-06-19T14:24:10;42.20;21.00
6174;DHT22;3120;48.796;9.796;2023-06-19T14:26:35;41.10;22.50
6174;DHT22;3120;48.796;9.796;2023-06-19T14:29:01;40.10;22.90
6174;DHT22;3120;48.796;9.796;2023-06-19T14:31:27;39.60;24.20
6174;DHT22;3120;48.796;9.796;2023-06-19T14:33:54;38.20;25.60
6174;DHT22;3120;48.796;9.796;2023-06-19T14:36:19;38.20;25.90
6174;DHT22;3120;48.796;9.796;2023-06-19T14:38:45;39.60;24.60
6174;DHT22;3120;48.796;9.796;2023-06-19T14:41:10;40.50;22.60
6174;DHT22;3120;48.796;9.796;2023-06-19T14:43:36;40.80;22.40
6174;DHT22;3120;48.796;9.796;2023-06-19T14:46:02;40.10;23.10
6174;DHT22;3120;48.796;9.796;2023-06-19T14:48:32;39.90;23.60
6174;DHT22;3120;48.796;9.796;2023-06-19T14:50:58;39.50;24.60
6174;DHT22;3120;48.796;9.796;2023-06-19T14:53:24;40.70;22.70
6174;DHT22;3120;48.796;9.796;2023-06-19T14:55:49;41.50;22.00
6174;DHT22;3120;48.796;9.796;2023-06-19T14:58:15;40.50;23.40
6174;DHT22;3120;48.796;9.796;2023-06-19T15:00:41;40.10;23.30
6174;DHT22;3120;48.796;9.796;2023-06-19T15:03:07;39.30;23.90
6174;DHT22;3120;48.796;9.796;2023-06-19T15:05:33;38.70;26.00
6174;DHT22;3120;48.796;9.796;2023-06-19T15:07:59;38.10;26.50
6174;DHT22;3120;48.796;9.796;2023-06-19T15:10:26;37.60;27.50
6174;DHT22;3120;48.796;9.796;2023-06-19T15:12:51;38.20;26.10
6174;DHT22;3120;48.796;9.796;2023-06-19T15:15:17;38.40;25.10
6174;DHT22;3120;48.796;9.796;2023-06-19T15:17:43;38.70;24.80
6174;DHT22;3120;48.796;9.796;2023-06-19T15:20:08;38.80;24.60
6174;DHT22;3120;48.796;9.796;2023-06-19T15:22:34;38.70;26.10
6174;DHT22;3120;48.796;9.796;2023-06-19T15:25:02;38.80;25.50
6174;DHT22;3120;48.796;9.796;2023-06-19T15:27:28;38.30;25.60
6174;DHT22;3120;48.796;9.796;2023-06-19T15:29:54;38.00;25.60
6174;DHT22;3120;48.796;9.796;2023-06-19T15:32:19;37.40;26.10
6174;DHT22;3120;48.796;9.796;2023-06-19T15:34:45;36.50;27.60
6174;DHT22;3120;48.796;9.796;2023-06-19T15:37:10;36.30;27.40
6174;DHT22;3120;48.796;9.796;2023-06-19T15:39:36;36.10;27.60
6174;DHT22;3120;48.796;9.796;2023-06-19T15:42:02;35.80;28.00
6174;DHT22;3120;48.796;9.796;2023-06-19T15:44:28;35.70;30.70
6174;DHT22;3120;48.796;9.796;2023-06-19T15:46:53;35.90;28.50
6174;DHT22;3120;48.796;9.796;2023-06-19T15:49:19;36.10;27.80
6174;DHT22;3120;48.796;9.796;2023-06-19T15:51:45;36.30;27.40
6174;DHT22;3120;48.796;9.796;2023-06-19T15:54:10;37.10;26.60
6174;DHT22;3120;48.796;9.796;2023-06-19T15:56:38;37.50;26.50
6174;DHT22;3120;48.796;9.796;2023-06-19T15:59:04;36.50;28.10
6174;DHT22;3120;48.796;9.796;2023-06-19T16:01:30;36.30;27.50
6174;DHT22;3120;48.796;9.796;2023-06-19T16:03:55;35.70;30.10
6174;DHT22;3120;48.796;9.796;2023-06-19T16:06:21;34.70;31.90
6174;DHT22;3120;48.796;9.796;2023-06-19T16:08:47;33.90;30.80
6174;DHT22;3120;48.796;9.796;2023-06-19T16:11:13;33.60;31.40
6174;DHT22;3120;48.796;9.796;2023-06-19T16:13:39;33.50;31.40
6174;DHT22;3120;48.796;9.796;2023-06-19T16:16:05;33.70;31.50
6174;DHT22;3120;48.796;9.796;2023-06-19T16:18:30;33.90;30.20
6174;DHT22;3120;48.796;9.796;2023-06-19T16:20:56;33.60;31.30
6174;DHT22;3120;48.796;9.796;2023-06-19T16:23:21;33.70;31.50
6174;DHT22;3120;48.796;9.796;2023-06-19T16:25:47;33.40;32.10
6174;DHT22;3120;48.796;9.796;2023-06-19T16:28:12;33.10;32.10
6174;DHT22;3120;48.796;9.796;2023-06-19T16:30:38;33.00;33.10
6174;DHT22;3120;48.796;9.796;2023-06-19T16:33:04;32.80;33.40
6174;DHT22;3120;48.796;9.796;2023-06-19T16:35:29;32.60;33.90
6174;DHT22;3120;48.796;9.796;2023-06-19T16:37:55;32.30;33.70
6174;DHT22;3120;48.796;9.796;2023-06-19T16:40:22;32.00;34.90
6174;DHT22;3120;48.796;9.796;2023-06-19T16:42:51;32.10;34.90
6174;DHT22;3120;48.796;9.796;2023-06-19T16:45:16;31.90;35.60
6174;DHT22;3120;48.796;9.796;2023-06-19T16:47:42;31.70;36.20
6174;DHT22;3120;48.796;9.796;2023-06-19T16:50:08;31.70;35.60
6174;DHT22;3120;48.796;9.796;2023-06-19T16:52:46;31.70;35.60
6174;DHT22;3120;48.796;9.796;2023-06-19T16:55:14;31.60;35.90
6174;DHT22;3120;48.796;9.796;2023-06-19T16:57:39;31.40;36.50
6174;DHT22;3120;48.796;9.796;2023-06-19T17:00:06;31.30;37.10
6174;DHT22;3120;48.796;9.796;2023-06-19T17:02:31;31.10;40.80
6174;DHT22;3120;48.796;9.796;2023-06-19T17:04:58;30.50;45.60
6174;DHT22;3120;48.796;9.796;2023-06-19T17:07:24;29.50;47.50
6174;DHT22;3120;48.796;9.796;2023-06-19T17:09:57;28.60;48.30
6174;DHT22;3120;48.796;9.796;2023-06-19T17:12:23;28.20;49.80
6174;DHT22;3120;48.796;9.796;2023-06-19T17:14:58;28.10;50.60
6174;DHT22;3120;48.796;9.796;2023-06-19T17:17:26;28.20;56.60
6174;DHT22;3120;48.796;9.796;2023-06-19T17:19:53;28.20;56.20
6174;DHT22;3120;48.796;9.796;2023-06-19T17:22:34;28.20;57.80
6174;DHT22;3120;48.796;9.796;2023-06-19T17:25:00;28.10;59.30
6174;DHT22;3120;48.796;9.796;2023-06-19T17:27:27;28.00;57.60
6174;DHT22;3120;48.796;9.796;2023-06-19T17:29:53;28.00;58.40
6174;DHT22;3120;48.796;9.796;2023-06-19T17:32:29;28.10;56.90
6174;DHT22;3120;48.796;9.796;2023-06-19T17:34:56;28.40;58.10
6174;DHT22;3120;48.796;9.796;2023-06-19T17:37:23;28.30;58.30
6174;DHT22;3120;48.796;9.796;2023-06-19T17:39:49;28.20;56.50
6174;DHT22;3120;48.796;9.796;2023-06-19T17:42:14;28.10;55.00
6174;DHT22;3120;48.796;9.796;2023-06-19T17:44:40;28.00;53.40
6174;DHT22;3120;48.796;9.796;2023-06-19T17:47:06;28.20;54.20
6174;DHT22;3120;48.796;9.796;2023-06-19T17:49:33;28.50;53.10
6174;DHT22;3120;48.796;9.796;2023-06-19T17:51:59;28.90;50.20
6174;DHT22;3120;48.796;9.796;2023-06-19T17:54:30;29.20;49.60
6174;DHT22;3120;48.796;9.796;2023-06-19T17:57:02;29.30;52.20
6174;DHT22;3120;48.796;9.796;2023-06-19T17:59:28;29.60;48.10
6174;DHT22;3120;48.796;9.796;2023-06-19T18:01:53;30.10;46.80
6174;DHT22;3120;48.796;9.796;2023-06-19T18:04:19;30.00;50.60
6174;DHT22;3120;48.796;9.796;2023-06-19T18:06:45;29.60;51.20
6174;DHT22;3120;48.796;9.796;2023-06-19T18:09:16;29.00;54.10
6174;DHT22;3120;48.796;9.796;2023-06-19T18:11:42;28.80;54.80
6174;DHT22;3120;48.796;9.796;2023-06-19T18:14:11;28.70;55.40
6174;DHT22;3120;48.796;9.796;2023-06-19T18:16:37;28.80;55.10
6174;DHT22;3120;48.796;9.796;2023-06-19T18:19:02;28.80;56.20
6174;DHT22;3120;48.796;9.796;2023-06-19T18:21:28;28.90;55.50
6174;DHT22;3120;48.796;9.796;2023-06-19T18:23:53;28.90;54.50
6174;DHT22;3120;48.796;9.796;2023-06-19T18:26:19;28.70;53.70
6174;DHT22;3120;48.796;9.796;2023-06-19T18:28:45;28.70;53.60
6174;DHT22;3120;48.796;9.796;2023-06-19T18:31:12;28.30;55.50
6174;DHT22;3120;48.796;9.796;2023-06-19T18:33:38;28.40;52.20
6174;DHT22;3120;48.796;9.796;2023-06-19T18:36:04;28.40;54.40
6174;DHT22;3120;48.796;9.796;2023-06-19T18:38:31;28.40;54.70
6174;DHT22;3120;48.796;9.796;2023-06-19T18:40:56;28.30;55.90
6174;DHT22;3120;48.796;9.796;2023-06-19T18:43:22;28.10;56.70
6174;DHT22;3120;48.796;9.796;2023-06-19T18:45:55;28.20;56.80